createdAt,value
2019-06-07T00:01:48.169Z,98360.27
2019-06-07T00:04:21.064Z,98362.10
2019-06-07T00:06:48.796Z,98357.77
2019-06-07T00:09:22.388Z,98353.36
2019-06-07T00:11:49.308Z,98349.02
2019-06-07T00:14:20.880Z,98352.55
2019-06-07T00:16:49.790Z,98347.39
2019-06-07T00:19:19.246Z,98347.28
2019-06-07T00:24:21.859Z,98339.98
2019-06-07T00:26:58.544Z,98345.25
2019-06-07T00:29:22.307Z,98345.70
2019-06-07T00:31:51.706Z,98336.55
2019-06-07T00:34:22.992Z,98340.96
2019-06-07T00:36:52.304Z,98339.33
2019-06-07T00:39:25.373Z,98328.80
2019-06-07T00:41:52.774Z,98326.63
2019-06-07T00:44:23.335Z,98324.83
2019-06-07T00:46:53.065Z,98317.42
2019-06-07T00:49:38.315Z,98317.98
2019-06-07T00:51:53.958Z,98322.05
2019-06-07T00:54:24.921Z,98324.70
2019-06-07T00:56:54.562Z,98327.81
2019-06-07T00:59:29.230Z,98327.84
2019-06-07T01:01:55.197Z,98332.34
2019-06-07T01:04:26.073Z,98327.93
2019-06-07T01:06:55.776Z,98325.70
2019-06-07T01:09:25.618Z,98331.47
2019-06-07T01:11:55.247Z,98327.93
2019-06-07T01:14:28.098Z,98323.44
2019-06-07T01:17:05.215Z,98322.12
2019-06-07T01:19:27.924Z,98312.51
2019-06-07T01:21:57.472Z,98317.61
2019-06-07T01:24:27.985Z,98314.33
2019-06-07T01:26:57.675Z,98317.41
2019-06-07T01:29:29.441Z,98307.34
2019-06-07T01:31:58.221Z,98297.20
2019-06-07T01:34:28.907Z,98295.39
2019-06-07T01:36:58.557Z,98288.30
2019-06-07T01:39:29.755Z,98280.63
2019-06-07T01:41:59.038Z,98273.78
2019-06-07T01:44:30.705Z,98272.72
2019-06-07T01:46:59.691Z,98266.14
2019-06-07T01:49:29.726Z,98263.63
2019-06-07T01:51:59.546Z,98265.82
2019-06-07T01:57:00.122Z,98264.61
2019-06-07T01:59:31.774Z,98266.19
2019-06-07T02:02:00.706Z,98256.66
2019-06-07T02:04:33.033Z,98247.98
2019-06-07T02:07:01.215Z,98248.42
2019-06-07T02:09:31.842Z,98249.58
2019-06-07T02:12:01.587Z,98246.56
2019-06-07T02:14:33.581Z,98236.41
2019-06-07T02:17:02.669Z,98226.29
2019-06-07T02:19:33.449Z,98229.25
2019-06-07T02:22:03.190Z,98222.59
2019-06-07T02:24:35.997Z,98220.10
2019-06-07T02:27:03.925Z,98212.50
2019-06-07T02:29:33.765Z,98214.77
2019-06-07T02:32:03.478Z,98209.44
2019-06-07T02:34:38.627Z,98212.44
2019-06-07T02:37:04.206Z,98217.38
2019-06-07T02:39:38.024Z,98206.55
2019-06-07T02:42:05.664Z,98206.05
2019-06-07T02:44:39.011Z,98200.95
2019-06-07T02:47:06.412Z,98197.83
2019-06-07T02:49:40.895Z,98187.42
2019-06-07T02:52:06.961Z,98187.09
2019-06-07T02:54:40.246Z,98183.70
2019-06-07T02:57:07.438Z,98173.36
2019-06-07T03:00:03.173Z,98177.06
2019-06-07T03:02:07.926Z,98178.77
2019-06-07T03:04:42.168Z,98172.48
2019-06-07T03:07:11.610Z,98172.98
2019-06-07T03:09:41.978Z,98176.06
2019-06-07T03:12:13.581Z,98169.28
2019-06-07T03:14:44.351Z,98162.25
2019-06-07T03:17:27.044Z,98160.77
2019-06-07T03:20:00.200Z,98160.77
2019-06-07T03:22:35.212Z,98160.51
2019-06-07T03:25:05.255Z,98161.31
2019-06-07T03:27:44.028Z,98161.39
2019-06-07T03:30:35.930Z,98153.66
2019-06-07T03:32:46.293Z,98152.61
2019-06-07T03:35:09.545Z,98149.71
2019-06-07T03:37:42.271Z,98145.20
2019-06-07T03:40:10.055Z,98143.95
2019-06-07T03:42:40.206Z,98132.10
2019-06-07T03:45:09.920Z,98131.80
2019-06-07T03:47:42.358Z,98128.83
2019-06-07T03:50:10.587Z,98122.31
2019-06-07T03:52:41.505Z,98119.58
2019-06-07T03:55:11.249Z,98112.59
2019-06-07T03:58:29.406Z,98115.10
2019-06-07T04:00:11.991Z,98115.00
2019-06-07T04:02:42.235Z,98114.60
2019-06-07T04:05:12.018Z,98114.86
2019-06-07T04:07:44.274Z,98109.16
2019-06-07T04:10:12.543Z,98097.49
2019-06-07T04:12:43.941Z,98100.25
2019-06-07T04:15:13.372Z,98097.09
2019-06-07T04:18:00.816Z,98098.92
2019-06-07T04:20:14.017Z,98100.12
2019-06-07T04:22:44.087Z,98095.66
2019-06-07T04:25:13.629Z,98090.70
2019-06-07T04:27:43.017Z,98101.67
2019-06-07T04:30:15.528Z,98101.03
2019-06-07T04:32:45.260Z,98096.55
2019-06-07T04:35:14.690Z,98084.36
2019-06-07T04:37:44.947Z,98077.82
2019-06-07T04:40:14.440Z,98079.45
2019-06-07T04:42:45.828Z,98082.66
2019-06-07T04:45:33.138Z,98071.98
2019-06-07T04:47:48.321Z,98077.17
2019-06-07T04:50:17.819Z,98075.42
2019-06-07T04:52:47.267Z,98077.95
2019-06-07T04:55:16.714Z,98077.53
2019-06-07T04:57:46.148Z,98068.48
2019-06-07T05:00:48.545Z,98067.56
2019-06-07T05:02:49.722Z,98060.17
2019-06-07T05:05:19.140Z,98054.72
2019-06-07T05:07:48.524Z,98053.50
2019-06-07T05:10:17.957Z,98053.56
2019-06-07T05:12:47.341Z,98055.08
2019-06-07T05:15:16.907Z,98054.90
2019-06-07T05:17:46.361Z,98053.98
2019-06-07T05:20:16.203Z,98054.80
2019-06-07T05:22:45.693Z,98055.40
2019-06-07T05:25:15.653Z,98056.51
2019-06-07T05:27:46.935Z,98051.89
2019-06-07T05:30:59.427Z,98038.33
2019-06-07T05:32:50.666Z,98039.91
2019-06-07T05:35:20.164Z,98026.72
2019-06-07T05:37:49.585Z,98026.20
2019-06-07T05:40:22.042Z,98023.14
2019-06-07T05:42:51.470Z,98013.72
2019-06-07T05:45:23.929Z,98013.45
2019-06-07T05:47:53.331Z,98005.08
2019-06-07T05:50:39.001Z,98006.13
2019-06-07T05:52:53.854Z,98012.11
2019-06-07T05:55:23.243Z,98018.70
2019-06-07T05:57:52.654Z,98014.48
2019-06-07T06:00:22.099Z,98014.86
2019-06-07T06:03:03.621Z,98009.36
2019-06-07T06:05:33.668Z,98003.36
2019-06-07T06:07:53.829Z,97998.47
2019-06-07T06:10:23.264Z,98004.05
2019-06-07T06:12:52.683Z,98013.91
2019-06-07T06:15:41.775Z,98006.11
2019-06-07T06:17:53.986Z,98011.22
2019-06-07T06:20:23.595Z,98001.06
2019-06-07T06:22:52.993Z,97998.45
2019-06-07T06:25:33.159Z,98002.82
2019-06-07T06:28:09.885Z,97992.69
2019-06-07T06:30:24.936Z,98001.42
2019-06-07T06:32:58.138Z,97992.58
2019-06-07T06:35:25.444Z,97994.20
2019-06-07T06:37:54.851Z,97981.56
2019-06-07T06:40:24.385Z,97982.20
2019-06-07T06:42:53.871Z,97988.19
2019-06-07T06:45:23.813Z,97979.75
2019-06-07T06:47:53.213Z,97987.83
2019-06-07T06:50:22.706Z,97975.33
2019-06-07T06:52:54.706Z,97975.17
2019-06-07T06:55:23.347Z,97980.24
2019-06-07T06:57:53.031Z,97979.33
2019-06-07T07:00:50.277Z,97970.20
2019-06-07T07:03:54.184Z,97977.11
2019-06-07T07:05:48.627Z,97965.68
2019-06-07T07:08:16.778Z,97951.09
2019-06-07T07:10:51.169Z,97944.64
2019-06-07T07:13:18.195Z,97939.88
2019-06-07T07:15:50.974Z,97943.98
2019-06-07T07:18:19.441Z,97934.59
2019-06-07T07:20:51.351Z,97943.12
2019-06-07T07:23:19.970Z,97936.68
2019-06-07T07:25:55.530Z,97933.47
2019-06-07T07:28:20.549Z,97933.47
2019-06-07T07:30:55.340Z,97935.60
2019-06-07T07:33:23.773Z,97933.69
2019-06-07T07:36:15.710Z,97932.13
2019-06-07T07:38:24.298Z,97927.50
2019-06-07T07:41:07.576Z,97933.66
2019-06-07T07:43:25.009Z,97921.71
2019-06-07T07:46:01.451Z,97926.88
2019-06-07T07:48:25.580Z,97919.33
2019-06-07T07:51:00.615Z,97915.22
2019-06-07T07:53:45.410Z,97918.00
2019-06-07T07:56:00.081Z,97917.20
2019-06-07T07:58:28.336Z,97919.51
2019-06-07T08:01:09.723Z,97900.21
2019-06-07T08:03:28.841Z,97898.65
2019-06-07T08:06:00.030Z,97908.11
2019-06-07T08:08:29.560Z,97900.42
2019-06-07T08:11:01.783Z,97892.19
2019-06-07T08:13:30.101Z,97892.00
2019-06-07T08:16:06.546Z,97886.62
2019-06-07T08:18:30.733Z,97899.70
2019-06-07T08:21:21.581Z,97892.01
2019-06-07T08:23:32.833Z,97872.83
2019-06-07T08:26:02.232Z,97872.78
2019-06-07T08:28:31.685Z,97862.23
2019-06-07T08:31:06.918Z,97871.33
2019-06-07T08:33:32.181Z,97860.34
2019-06-07T08:36:19.392Z,97852.33
2019-06-07T08:38:47.058Z,97857.25
2019-06-07T08:41:11.442Z,97846.66
2019-06-07T08:43:34.978Z,97848.84
2019-06-07T08:46:07.817Z,97835.39
2019-06-07T08:48:35.627Z,97813.88
2019-06-07T08:51:08.122Z,97822.27
2019-06-07T08:53:36.371Z,97807.11
2019-06-07T08:56:10.185Z,97806.36
2019-06-07T08:58:36.881Z,97810.70
2019-06-07T09:01:08.717Z,97793.73
2019-06-07T09:03:37.465Z,97793.49
2019-06-07T09:06:41.162Z,97806.20
2019-06-07T09:08:37.971Z,97812.50
2019-06-07T09:11:11.369Z,97794.84
2019-06-07T09:13:38.488Z,97796.67
2019-06-07T09:16:08.990Z,97795.92
2019-06-07T09:18:43.698Z,97786.55
2019-06-07T09:21:10.042Z,97783.52
2019-06-07T09:23:39.518Z,97787.34
2019-06-07T09:26:17.683Z,97779.78
2019-06-07T09:28:40.269Z,97774.59
2019-06-07T09:31:12.502Z,97767.59
2019-06-07T09:33:40.861Z,97770.03
2019-06-07T09:36:13.112Z,97771.56
2019-06-07T09:38:42.384Z,97768.59
2019-06-07T09:41:11.797Z,97775.59
2019-06-07T09:44:01.525Z,97772.98
2019-06-07T09:46:16.775Z,97772.35
2019-06-07T09:49:14.101Z,97781.33
2019-06-07T09:51:20.458Z,97758.63
2019-06-07T09:53:48.695Z,97758.63
2019-06-07T09:56:18.115Z,97790.30
2019-06-07T09:58:52.097Z,97774.27
2019-06-07T10:01:18.666Z,97781.22
2019-06-07T10:03:48.001Z,97773.84
2019-06-07T10:06:17.468Z,97772.72
2019-06-07T10:11:17.997Z,97766.50
2019-06-07T10:13:47.398Z,97768.86
2019-06-07T10:16:16.821Z,97760.08
2019-06-07T10:18:46.282Z,97767.30
2019-06-07T10:21:15.848Z,97766.99
2019-06-07T10:23:45.269Z,97750.05
2019-06-07T10:26:14.678Z,97763.93
2019-06-07T10:28:44.076Z,97759.68
2019-06-07T10:31:14.803Z,97745.27
2019-06-07T10:33:44.218Z,97741.53
2019-06-07T10:36:13.623Z,97750.77
2019-06-07T10:38:43.013Z,97726.33
2019-06-07T10:41:12.443Z,97733.77
2019-06-07T10:43:41.913Z,97724.97
2019-06-07T10:46:12.066Z,97724.16
2019-06-07T10:48:41.611Z,97732.53
2019-06-07T10:51:12.444Z,97726.80
2019-06-07T10:53:42.112Z,97726.89
2019-06-07T10:56:13.186Z,97721.36
2019-06-07T10:58:42.788Z,97729.92
2019-06-07T11:01:14.138Z,97736.16
2019-06-07T11:03:43.381Z,97735.23
2019-06-07T11:06:14.209Z,97722.64
2019-06-07T11:08:43.917Z,97725.70
2019-06-07T11:11:14.376Z,97718.33
2019-06-07T11:13:43.998Z,97725.95
2019-06-07T11:16:13.392Z,97726.99
2019-06-07T11:18:42.785Z,97723.25
2019-06-07T11:21:12.260Z,97723.70
2019-06-07T11:23:41.679Z,97720.67
2019-06-07T11:26:12.364Z,97728.30
2019-06-07T11:28:41.871Z,97715.89
2019-06-07T11:31:11.952Z,97707.87
2019-06-07T11:33:42.636Z,97709.31
2019-06-07T11:36:12.863Z,97711.23
2019-06-07T11:38:42.350Z,97716.58
2019-06-07T11:41:11.715Z,97720.58
2019-06-07T11:43:41.140Z,97721.53
2019-06-07T11:46:10.995Z,97716.55
2019-06-07T11:48:40.419Z,97723.42
2019-06-07T11:51:10.818Z,97721.91
2019-06-07T11:53:40.311Z,97722.77
2019-06-07T11:56:10.388Z,97731.39
2019-06-07T11:58:39.853Z,97722.18
2019-06-07T12:01:09.653Z,97725.14
2019-06-07T12:03:39.155Z,97722.16
2019-06-07T12:06:09.876Z,97707.37
2019-06-07T12:08:39.359Z,97678.39
2019-06-07T12:11:08.735Z,97687.44
2019-06-07T12:13:38.154Z,97700.52
2019-06-07T12:16:08.930Z,97683.45
2019-06-07T12:18:38.431Z,97683.39
2019-06-07T12:21:07.839Z,97677.30
2019-06-07T12:23:37.282Z,97668.78
2019-06-07T12:26:06.674Z,97676.20
2019-06-07T12:28:36.092Z,97690.05
2019-06-07T12:31:05.532Z,97691.98
2019-06-07T12:33:35.094Z,97690.44
2019-06-07T12:36:04.483Z,97695.23
2019-06-07T12:38:33.888Z,97700.13
2019-06-07T12:41:03.293Z,97695.17
2019-06-07T12:43:32.697Z,97687.84
2019-06-07T12:46:02.093Z,97681.71
2019-06-07T12:48:31.506Z,97679.16
2019-06-07T12:51:00.906Z,97689.40
2019-06-07T12:53:30.318Z,97681.27
2019-06-07T12:56:00.328Z,97683.99
2019-06-07T12:58:35.323Z,97677.50
2019-06-07T13:01:00.883Z,97687.73
2019-06-07T13:03:30.310Z,97689.57
2019-06-07T13:05:59.702Z,97694.22
2019-06-07T13:08:29.127Z,97698.12
2019-06-07T13:11:14.270Z,97688.16
2019-06-07T13:13:29.627Z,97689.30
2019-06-07T13:15:59.018Z,97684.27
2019-06-07T13:18:28.641Z,97687.79
2019-06-07T13:20:58.130Z,97680.77
2019-06-07T13:23:29.018Z,97699.73
2019-06-07T13:25:58.570Z,97695.14
2019-06-07T13:28:29.008Z,97679.06
2019-06-07T13:30:58.462Z,97683.14
2019-06-07T13:33:35.425Z,97678.44
2019-06-07T13:35:58.958Z,97676.39
2019-06-07T13:38:29.082Z,97680.91
2019-06-07T13:40:58.639Z,97677.27
2019-06-07T13:43:28.346Z,97691.16
2019-06-07T13:45:57.816Z,97688.38
2019-06-07T13:48:27.831Z,97691.93
2019-06-07T13:50:57.433Z,97685.77
2019-06-07T13:53:26.827Z,97698.06
2019-06-07T13:55:56.248Z,97696.81
2019-06-07T13:58:26.375Z,97696.81
2019-06-07T14:00:55.843Z,97703.74
2019-06-07T14:03:30.398Z,97703.84
2019-06-07T14:05:56.391Z,97703.84
2019-06-07T14:08:27.175Z,97695.36
2019-06-07T14:10:56.669Z,97711.41
2019-06-07T14:13:26.066Z,97716.53
2019-06-07T14:15:55.499Z,97715.96
2019-06-07T14:18:26.332Z,97718.69
2019-06-07T14:20:58.829Z,97717.62
2019-06-07T14:23:42.730Z,97726.39
2019-06-07T14:25:58.102Z,97736.03
2019-06-07T14:28:30.847Z,97741.31
2019-06-07T14:30:58.688Z,97747.46
2019-06-07T14:33:30.012Z,97752.50
2019-06-07T14:35:59.274Z,97767.05
2019-06-07T14:38:30.165Z,97820.27
2019-06-07T14:40:59.784Z,97851.08
2019-06-07T14:43:29.629Z,97867.70
2019-06-07T14:45:59.070Z,97900.38
2019-06-07T14:48:28.587Z,97948.77
2019-06-07T14:50:57.947Z,97938.18
2019-06-07T14:53:28.611Z,97974.88
2019-06-07T14:55:58.161Z,97982.16
2019-06-07T14:58:27.622Z,97991.72
2019-06-07T15:00:57.065Z,98004.63
2019-06-07T15:03:26.474Z,98007.97
2019-06-07T15:05:55.900Z,98020.21
2019-06-07T15:08:26.458Z,98028.03
2019-06-07T15:10:55.897Z,98045.83
2019-06-07T15:13:25.297Z,98042.84
2019-06-07T15:15:54.703Z,98056.17
2019-06-07T15:18:24.093Z,98068.75
2019-06-07T15:20:53.511Z,98073.23
2019-06-07T15:23:22.899Z,98090.80
2019-06-07T15:25:52.331Z,98082.61
2019-06-07T15:28:21.718Z,98087.31
2019-06-07T15:30:51.152Z,98095.28
2019-06-07T15:33:20.539Z,98113.16
2019-06-07T15:35:49.963Z,98114.41
2019-06-07T15:38:19.606Z,98121.48
2019-06-07T15:40:52.050Z,98127.03
2019-06-07T15:43:21.830Z,98132.14
2019-06-07T15:45:51.486Z,98149.43
2019-06-07T15:48:20.884Z,98163.33
2019-06-07T15:50:50.369Z,98154.80
2019-06-07T15:53:19.838Z,98153.33
2019-06-07T15:55:49.422Z,98164.32
2019-06-07T15:58:22.419Z,98159.37
2019-06-07T16:00:53.406Z,98163.37
2019-06-07T16:03:22.819Z,98185.86
2019-06-07T16:05:52.232Z,98190.20
2019-06-07T16:08:21.627Z,98172.63
2019-06-07T16:10:51.054Z,98193.13
2019-06-07T16:13:20.453Z,98187.42
2019-06-07T16:15:49.859Z,98194.27
2019-06-07T16:18:19.259Z,98192.06
2019-06-07T16:20:48.681Z,98181.11
2019-06-07T16:23:18.093Z,98179.63
2019-06-07T16:25:47.501Z,98194.47
2019-06-07T16:28:16.908Z,98209.69
2019-06-07T16:30:46.324Z,98227.41
2019-06-07T16:33:15.713Z,98227.16
2019-06-07T16:35:45.356Z,98233.21
2019-06-07T16:38:14.706Z,98243.33
2019-06-07T16:40:44.609Z,98238.23
2019-06-07T16:43:17.926Z,98241.43
2019-06-07T16:45:45.184Z,98244.68
2019-06-07T16:48:14.600Z,98251.86
2019-06-07T16:50:45.161Z,98252.72
2019-06-07T16:53:14.660Z,98244.11
2019-06-07T16:55:44.839Z,98263.48
2019-06-07T16:58:14.247Z,98268.72
2019-06-07T17:00:44.265Z,98276.00
2019-06-07T17:03:13.688Z,98269.22
2019-06-07T17:05:46.954Z,98263.25
2019-06-07T17:08:14.140Z,98281.56
2019-06-07T17:10:44.234Z,98261.69
2019-06-07T17:13:13.639Z,98265.68
2019-06-07T17:15:43.023Z,98253.20
2019-06-07T17:18:12.441Z,98265.10
2019-06-07T17:20:42.993Z,98245.66
2019-06-07T17:23:12.622Z,98255.80
2019-06-07T17:25:43.437Z,98248.00
2019-06-07T17:28:13.078Z,98265.80
2019-06-07T17:30:43.919Z,98265.55
2019-06-07T17:33:13.376Z,98282.20
2019-06-07T17:35:44.687Z,98280.19
2019-06-07T17:38:14.187Z,98269.53
2019-06-07T17:40:44.863Z,98268.89
2019-06-07T17:43:14.372Z,98269.48
2019-06-07T17:45:43.824Z,98277.53
2019-06-07T17:48:13.243Z,98247.48
2019-06-07T17:50:43.715Z,98231.72
2019-06-07T17:53:13.175Z,98232.16
2019-06-07T17:55:43.985Z,98221.32
2019-06-07T17:58:13.551Z,98201.02
2019-06-07T18:00:48.867Z,98204.56
2019-06-07T18:03:18.444Z,98195.91
2019-06-07T18:05:49.663Z,98185.39
2019-06-07T18:08:19.057Z,98188.84
2019-06-07T18:10:49.926Z,98183.48
2019-06-07T18:13:19.475Z,98171.77
2019-06-07T18:15:53.930Z,98139.20
2019-06-07T18:18:20.402Z,98138.97
2019-06-07T18:20:51.507Z,98152.28
2019-06-07T18:23:21.069Z,98154.39
2019-06-07T18:25:50.625Z,98173.34
2019-06-07T18:28:19.960Z,98171.37
2019-06-07T18:30:50.697Z,98197.72
2019-06-07T18:33:20.151Z,98209.23
2019-06-07T18:35:49.639Z,98214.10
2019-06-07T18:38:19.137Z,98199.92
2019-06-07T18:40:49.133Z,98188.02
2019-06-07T18:43:18.529Z,98209.71
2019-06-07T18:45:49.217Z,98236.69
2019-06-07T18:48:18.721Z,98253.39
2019-06-07T18:50:48.622Z,98256.18
2019-06-07T18:53:18.023Z,98257.59
2019-06-07T18:55:47.813Z,98249.00
2019-06-07T18:58:17.243Z,98238.14
2019-06-07T19:00:47.386Z,98259.08
2019-06-07T19:03:16.824Z,98269.77
2019-06-07T19:05:46.284Z,98277.77
2019-06-07T19:08:15.686Z,98265.91
2019-06-07T19:10:45.106Z,98257.19
2019-06-07T19:13:14.506Z,98233.68
2019-06-07T19:15:43.990Z,98187.02
2019-06-07T19:18:13.436Z,98171.34
2019-06-07T19:20:42.892Z,98122.78
2019-06-07T19:23:12.309Z,98147.54
2019-06-07T19:25:41.881Z,98206.45
2019-06-07T19:28:11.311Z,98216.70
2019-06-07T19:30:40.894Z,98233.45
2019-06-07T19:33:10.262Z,98238.94
2019-06-07T19:35:39.684Z,98231.83
2019-06-07T19:38:09.147Z,98227.56
2019-06-07T19:40:38.573Z,98232.13
2019-06-07T19:43:07.972Z,98234.73
2019-06-07T19:45:37.386Z,98241.20
2019-06-07T19:48:06.824Z,98255.77
2019-06-07T19:50:36.292Z,98235.98
2019-06-07T19:53:05.692Z,98233.41
2019-06-07T19:55:35.103Z,98250.23
2019-06-07T19:58:04.573Z,98268.47
2019-06-07T20:00:34.064Z,98265.20
2019-06-07T20:03:04.504Z,98273.92
2019-06-07T20:05:34.386Z,98277.25
2019-06-07T20:08:04.857Z,98293.77
2019-06-07T20:10:34.543Z,98293.54
2019-06-07T20:13:05.186Z,98298.63
2019-06-07T20:15:34.758Z,98315.47
2019-06-07T20:18:05.557Z,98322.02
2019-06-07T20:20:35.027Z,98327.78
2019-06-07T20:23:05.217Z,98333.36
2019-06-07T20:25:34.831Z,98342.59
2019-06-07T20:28:05.567Z,98349.41
2019-06-07T20:30:35.023Z,98357.64
2019-06-07T20:33:05.976Z,98368.19
2019-06-07T20:35:35.597Z,98369.90
2019-06-07T20:38:05.714Z,98374.75
2019-06-07T20:40:35.200Z,98388.18
2019-06-07T20:43:05.744Z,98403.00
2019-06-07T20:45:36.079Z,98397.65
2019-06-07T20:48:06.342Z,98398.00
2019-06-07T20:50:35.803Z,98405.09
2019-06-07T20:53:05.348Z,98390.73
2019-06-07T20:55:34.720Z,98388.26
2019-06-07T20:58:05.511Z,98396.88
2019-06-07T21:00:35.062Z,98389.02
2019-06-07T21:03:05.420Z,98386.06
2019-06-07T21:05:34.833Z,98389.72
2019-06-07T21:08:08.105Z,98383.75
2019-06-07T21:10:35.411Z,98370.83
2019-06-07T21:13:05.900Z,98371.23
2019-06-07T21:15:47.900Z,98379.10
2019-06-07T21:18:11.954Z,98379.52
2019-06-07T21:20:37.664Z,98394.78
2019-06-07T21:23:07.066Z,98394.16
2019-06-07T21:25:36.499Z,98406.69
2019-06-07T21:28:07.168Z,98394.43
2019-06-07T21:30:36.732Z,98387.41
2019-06-07T21:33:07.522Z,98376.34
2019-06-07T21:35:37.004Z,98385.14
2019-06-07T21:38:07.757Z,98393.59
2019-06-07T21:40:37.218Z,98398.00
2019-06-07T21:43:06.622Z,98400.80
2019-06-07T21:45:36.011Z,98396.36
2019-06-07T21:48:07.514Z,98408.97
2019-06-07T21:50:37.772Z,98406.63
2019-06-07T21:53:08.544Z,98421.23
2019-06-07T21:55:37.980Z,98418.38
2019-06-07T21:58:07.369Z,98426.37
2019-06-07T22:00:54.740Z,98427.80
2019-06-07T22:03:24.232Z,98422.59
2019-06-07T22:05:53.655Z,98413.66
2019-06-07T22:08:23.050Z,98426.27
2019-06-07T22:10:52.441Z,98433.13
2019-06-07T22:13:21.948Z,98429.44
2019-06-07T22:15:51.346Z,98436.08
2019-06-07T22:18:20.786Z,98435.62
2019-06-07T22:20:50.176Z,98445.27
2019-06-07T22:23:19.604Z,98458.64
2019-06-07T22:25:48.990Z,98462.30
2019-06-07T22:28:18.557Z,98464.38
2019-06-07T22:30:47.882Z,98462.03
2019-06-07T22:33:17.307Z,98467.03
2019-06-07T22:35:46.701Z,98458.54
2019-06-07T22:38:16.133Z,98453.86
2019-06-07T22:40:45.526Z,98459.80
2019-06-07T22:43:15.981Z,98459.03
2019-06-07T22:45:45.430Z,98452.67
2019-06-07T22:48:15.433Z,98450.08
2019-06-07T22:50:44.834Z,98456.16
2019-06-07T22:53:15.506Z,98476.43
2019-06-07T22:55:47.271Z,98475.66
2019-06-07T22:58:18.817Z,98485.09
2019-06-07T23:00:47.976Z,98489.39
2019-06-07T23:03:19.064Z,98485.75
2019-06-07T23:05:48.493Z,98485.02
2019-06-07T23:08:19.023Z,98499.14
2019-06-07T23:10:48.510Z,98495.68
2019-06-07T23:13:17.949Z,98498.78
2019-06-07T23:15:47.335Z,98505.01
2019-06-07T23:18:17.665Z,98507.37
2019-06-07T23:20:47.151Z,98501.09
2019-06-07T23:23:17.290Z,98503.30
2019-06-07T23:25:46.748Z,98508.64
2019-06-07T23:28:16.635Z,98510.42
2019-06-07T23:30:46.039Z,98493.79
2019-06-07T23:33:15.435Z,98501.68
2019-06-07T23:35:45.031Z,98506.22
2019-06-07T23:38:14.949Z,98505.41
2019-06-07T23:40:44.342Z,98501.67
2019-06-07T23:43:13.769Z,98505.43
2019-06-07T23:45:43.172Z,98510.09
2019-06-07T23:48:13.629Z,98509.31
2019-06-07T23:50:43.073Z,98510.16
2019-06-07T23:53:13.620Z,98514.98
2019-06-07T23:55:43.101Z,98514.59
2019-06-07T23:58:12.511Z,98515.50
